Time;durP1;ratioP1;P1;durP2;ratioP2;P2;SDS_P1;SDS_P2;PMS_P1;PMS_P2;Temp;Humidity;BMP_temperature;BMP_pressure;BME280_temperature;BME280_humidity;BME280_pressure;Samples;Min_cycle;Max_cycle;Signal;HPM_P1;HPM_P2
2022/01/10 00:00:51;;;;;;;14.75;10.53;;;;;;;9.31;49.60;98901.03;1795036;79;21025;-64
2022/01/10 00:03:17;;;;;;;11.12;8.90;;;;;;;9.31;49.60;98906.33;1806518;79;20986;-63
2022/01/10 00:05:45;;;;;;;13.40;10.05;;;;;;;9.32;49.63;98911.13;1847095;77;21565;-65
2022/01/10 00:08:14;;;;;;;12.78;9.68;;;;;;;9.31;49.62;98920.06;1847141;77;20986;-64
2022/01/10 00:10:40;;;;;;;13.03;10.10;;;;;;;9.30;49.64;98924.55;1816525;77;21508;-64
2022/01/10 00:13:08;;;;;;;13.35;9.45;;;;;;;9.31;49.64;98927.53;1814466;79;21029;-64
2022/01/10 00:15:35;;;;;;;11.78;9.58;;;;;;;9.32;49.64;98929.67;1814505;79;21506;-65
2022/01/10 00:18:01;;;;;;;12.33;10.00;;;;;;;9.32;49.63;98931.00;1814515;79;21045;-64
2022/01/10 00:20:29;;;;;;;12.07;10.20;;;;;;;9.31;49.65;98928.02;1815457;77;21014;-64
2022/01/10 00:22:56;;;;;;;14.28;9.90;;;;;;;9.32;49.66;98942.92;1814499;78;20989;-63
2022/01/10 00:25:22;;;;;;;12.65;9.80;;;;;;;9.31;49.66;98951.39;1814489;79;21087;-64
2022/01/10 00:27:52;;;;;;;13.03;10.45;;;;;;;9.31;49.68;98949.22;1814056;77;21474;-64
2022/01/10 00:30:19;;;;;;;13.22;10.00;;;;;;;9.31;49.68;98961.14;1813031;79;21069;-63
2022/01/10 00:32:46;;;;;;;12.98;9.63;;;;;;;9.31;49.69;98960.66;1841749;77;21474;-64
2022/01/10 00:35:12;;;;;;;11.45;8.88;;;;;;;9.31;49.68;98963.80;1841118;77;21006;-63
2022/01/10 00:37:41;;;;;;;10.28;9.13;;;;;;;9.30;49.72;98964.81;1836543;77;21462;-64
2022/01/10 00:40:09;;;;;;;12.50;9.68;;;;;;;9.31;49.69;98959.34;1838699;78;21463;-63
2022/01/10 00:42:37;;;;;;;12.18;10.58;;;;;;;9.32;49.68;98960.16;1836324;77;21100;-64
2022/01/10 00:45:13;;;;;;;11.78;9.60;;;;;;;9.31;49.69;98959.34;1829434;77;21592;-63
2022/01/10 00:47:34;;;;;;;13.70;10.30;;;;;;;9.32;49.70;98960.97;1807326;78;21415;-63
2022/01/10 00:50:00;;;;;;;11.48;9.05;;;;;;;9.31;49.72;98953.20;1804541;79;21046;-63
2022/01/10 00:52:26;;;;;;;12.23;9.25;;;;;;;9.32;49.72;98961.48;1753056;81;21072;-62
2022/01/10 00:54:53;;;;;;;11.83;9.60;;;;;;;9.32;49.73;98956.18;1805353;78;21978;-64
2022/01/10 00:57:19;;;;;;;12.15;10.75;;;;;;;9.32;49.73;98958.83;1804215;79;21074;-63
2022/01/10 00:59:45;;;;;;;12.47;9.93;;;;;;;9.32;49.72;98958.83;1804230;79;21017;-62
2022/01/10 01:02:12;;;;;;;11.45;9.75;;;;;;;9.32;49.73;98957.50;1817016;78;20971;-64
2022/01/10 01:04:38;;;;;;;12.40;9.33;;;;;;;9.31;49.71;98959.34;1836945;78;21029;-63
2022/01/10 01:07:05;;;;;;;11.18;9.05;;;;;;;9.32;49.72;98958.32;1837096;78;21121;-63
2022/01/10 01:09:32;;;;;;;11.95;9.58;;;;;;;9.31;49.73;98957.17;1836990;78;21458;-64
2022/01/10 01:17:14;;;;;;;11.75;9.30;;;;;;;9.32;49.73;98956.18;1826084;78;21053;-64
2022/01/10 01:20:04;;;;;;;11.43;8.90;;;;;;;9.32;49.73;98966.78;1809829;78;21145;-64
2022/01/10 01:25:05;;;;;;;11.80;9.05;;;;;;;9.31;49.74;98967.77;1836747;78;21017;-63
2022/01/10 01:27:33;;;;;;;11.03;8.98;;;;;;;9.30;49.76;98977.56;1835789;78;20987;-63
2022/01/10 01:30:00;;;;;;;10.55;8.78;;;;;;;9.28;49.77;98971.61;1837317;78;21057;-63
2022/01/10 01:32:26;;;;;;;11.03;8.85;;;;;;;9.28;49.78;98980.89;1837040;78;21237;-64
2022/01/10 01:34:56;;;;;;;10.30;8.98;;;;;;;9.28;49.79;98981.40;1838459;77;21105;-64
2022/01/10 01:37:21;;;;;;;11.35;9.38;;;;;;;9.28;49.79;98984.05;1839356;77;21482;-64
2022/01/10 01:39:47;;;;;;;11.43;9.33;;;;;;;9.27;49.82;98984.53;1839829;78;21076;-63
2022/01/10 01:42:35;;;;;;;11.83;9.00;;;;;;;9.25;49.80;98983.41;1839789;78;20983;-63
2022/01/10 01:44:57;;;;;;;11.22;9.15;;;;;;;9.25;49.82;98983.41;1835711;77;21216;-63
2022/01/10 01:50:01;;;;;;;10.08;8.93;;;;;;;9.31;49.83;98982.34;1889289;76;28633;-63
2022/01/10 01:52:28;;;;;;;10.15;8.85;;;;;;;9.27;49.84;98991.16;1855269;77;21050;-62
2022/01/10 01:54:55;;;;;;;9.95;8.03;;;;;;;9.25;49.84;98988.70;1781425;80;21148;-64
2022/01/10 01:57:21;;;;;;;10.23;8.15;;;;;;;9.25;49.85;98990.03;1793985;80;20981;-66
2022/01/10 01:59:48;;;;;;;10.45;8.70;;;;;;;9.25;49.86;98991.83;1793993;80;20999;-64
2022/01/10 02:02:15;;;;;;;12.05;8.98;;;;;;;9.25;49.86;98991.83;1783138;80;21049;-63
2022/01/10 02:04:41;;;;;;;10.08;8.35;;;;;;;9.25;49.86;98991.83;1758933;81;21628;-63
2022/01/10 02:07:08;;;;;;;10.08;8.83;;;;;;;9.24;49.85;98997.64;1790031;78;21208;-63
2022/01/10 02:09:36;;;;;;;11.15;9.13;;;;;;;9.25;49.86;98995.81;1789600;80;21199;-64
2022/01/10 02:12:03;;;;;;;10.08;8.68;;;;;;;9.24;49.87;99001.62;1822463;78;21000;-65
2022/01/10 02:14:30;;;;;;;10.82;8.93;;;;;;;9.24;49.88;99003.45;1822298;78;21025;-63
2022/01/10 02:16:57;;;;;;;10.88;8.40;;;;;;;9.24;49.86;99004.27;1786018;80;21481;-63
2022/01/10 02:19:25;;;;;;;10.00;8.10;;;;;;;9.24;49.87;99005.59;1815898;78;21849;-64
2022/01/10 02:21:52;;;;;;;10.55;8.35;;;;;;;9.25;49.87;99013.89;1789992;80;21001;-64
2022/01/10 02:24:20;;;;;;;9.75;8.08;;;;;;;9.24;49.87;99014.88;1822263;78;21092;-64
2022/01/10 02:26:50;;;;;;;10.85;8.88;;;;;;;9.24;49.88;99018.03;1823986;78;21060;-63
2022/01/10 02:29:17;;;;;;;9.10;8.18;;;;;;;9.23;49.88;99018.54;1790070;80;21029;-63
2022/01/10 02:31:45;;;;;;;8.33;7.37;;;;;;;9.22;49.88;99018.20;1822582;78;21078;-63
2022/01/10 02:34:16;;;;;;;9.90;8.08;;;;;;;9.24;49.89;99019.36;1822682;78;21001;-63
2022/01/10 02:36:41;;;;;;;9.80;8.25;;;;;;;9.23;49.88;99018.54;1804321;78;21014;-64
2022/01/10 02:39:09;;;;;;;9.15;7.87;;;;;;;9.22;49.90;99022.17;1790158;80;21461;-62
2022/01/10 02:41:39;;;;;;;9.33;8.03;;;;;;;9.23;49.88;99030.47;1758812;81;21516;-64
2022/01/10 02:44:11;;;;;;;9.15;7.55;;;;;;;9.22;49.88;99026.16;1777039;79;21072;-64
2022/01/10 02:46:38;;;;;;;9.43;8.00;;;;;;;9.22;49.90;99032.78;1812030;78;21049;-63
2022/01/10 02:49:11;;;;;;;9.15;7.75;;;;;;;9.22;49.90;99030.64;1814001;78;21082;-62
2022/01/10 02:51:38;;;;;;;8.38;7.30;;;;;;;9.22;49.90;99038.08;1792885;79;20994;-64
2022/01/10 02:54:04;;;;;;;9.38;7.62;;;;;;;9.22;49.92;99039.41;1788984;79;21659;-63
2022/01/10 02:56:30;;;;;;;8.50;7.40;;;;;;;9.21;49.91;99039.58;1803219;79;21109;-64
2022/01/10 02:58:57;;;;;;;8.63;7.72;;;;;;;9.21;49.90;99039.58;1803063;79;21522;-64
2022/01/10 03:01:23;;;;;;;8.18;7.28;;;;;;;9.21;49.92;99053.67;1801840;79;21092;-63
2022/01/10 03:03:50;;;;;;;9.43;7.53;;;;;;;9.21;49.91;99046.20;1802722;79;20995;-64
2022/01/10 03:06:16;;;;;;;8.58;7.65;;;;;;;9.21;49.91;99056.80;1802562;79;21017;-63
2022/01/10 03:08:43;;;;;;;8.60;7.67;;;;;;;9.21;49.93;99059.45;1802671;79;21129;-65
2022/01/10 03:11:10;;;;;;;9.00;7.40;;;;;;;9.21;49.93;99061.63;1781938;79;20999;-63
2022/01/10 03:13:36;;;;;;;9.93;8.00;;;;;;;9.20;49.91;99066.58;1778848;80;22017;-64
2022/01/10 03:16:04;;;;;;;9.73;8.00;;;;;;;9.20;49.92;99067.91;1778940;80;21045;-64
2022/01/10 03:18:31;;;;;;;8.85;7.55;;;;;;;9.20;49.91;99070.56;1781547;80;21057;-63
2022/01/10 03:20:58;;;;;;;9.68;8.25;;;;;;;9.20;49.92;99070.56;1807865;79;21905;-63
2022/01/10 03:23:24;;;;;;;8.25;7.35;;;;;;;9.20;49.90;99071.88;1807643;79;21053;-63
2022/01/10 03:25:51;;;;;;;9.83;7.80;;;;;;;9.20;49.90;99069.74;1776345;80;21163;-63
2022/01/10 03:28:17;;;;;;;8.55;7.37;;;;;;;9.19;49.91;99076.88;1801605;79;21019;-63
2022/01/10 03:30:44;;;;;;;9.43;7.53;;;;;;;9.19;49.91;99072.90;1732865;82;21065;-63
2022/01/10 03:33:12;;;;;;;8.20;7.03;;;;;;;9.19;49.92;99076.88;1762469;80;23269;-63
2022/01/10 03:35:38;;;;;;;8.55;7.65;;;;;;;9.18;49.90;99079.19;1837534;77;21023;-63
2022/01/10 03:38:06;;;;;;;8.68;7.78;;;;;;;9.18;49.92;99079.19;1838246;78;21061;-63
2022/01/10 03:40:35;;;;;;;8.53;7.22;;;;;;;9.19;49.92;99085.30;1767113;81;21010;-63
2022/01/10 03:43:03;;;;;;;9.85;7.17;;;;;;;9.18;49.92;99081.02;1767114;81;21027;-64
2022/01/10 03:45:30;;;;;;;9.53;7.62;;;;;;;9.17;49.94;99080.68;1774993;80;21166;-63
2022/01/10 03:47:56;;;;;;;8.23;6.75;;;;;;;9.18;49.93;99085.81;1817541;77;21199;-62
2022/01/10 03:50:24;;;;;;;8.45;6.75;;;;;;;9.18;49.91;99090.30;1854608;77;21108;-64
2022/01/10 03:52:50;;;;;;;8.25;7.28;;;;;;;9.17;49.93;99092.09;1849890;77;21042;-63
2022/01/10 03:55:17;;;;;;;8.53;7.37;;;;;;;9.17;49.94;99092.61;1779420;80;21519;-63
2022/01/10 03:57:43;;;;;;;8.28;7.10;;;;;;;9.17;49.93;99090.77;1787136;80;21072;-64
2022/01/10 04:00:11;;;;;;;8.50;7.15;;;;;;;9.15;49.95;99088.80;1816422;79;21588;-65
2022/01/10 04:02:46;;;;;;;9.45;7.20;;;;;;;9.17;49.93;99095.25;1783897;80;21416;-64
2022/01/10 04:05:13;;;;;;;8.35;7.28;;;;;;;9.17;49.98;99096.58;1788084;80;21026;-65
2022/01/10 04:07:39;;;;;;;8.13;7.33;;;;;;;9.16;49.97;99093.63;1783265;80;21543;-64
2022/01/10 04:10:07;;;;;;;8.88;7.05;;;;;;;9.16;49.93;99094.44;1756911;81;21183;-64
2022/01/10 04:12:33;;;;;;;8.88;7.40;;;;;;;9.16;49.93;99098.92;1756689;81;21084;-63
2022/01/10 04:14:59;;;;;;;8.00;6.90;;;;;;;9.16;49.94;99107.69;1784350;80;21513;-64
2022/01/10 04:17:26;;;;;;;8.25;7.45;;;;;;;9.16;49.94;99115.64;1782784;78;20998;-64
2022/01/10 04:19:52;;;;;;;8.63;7.28;;;;;;;9.15;49.95;99117.95;1753367;81;21379;-64
2022/01/10 04:22:19;;;;;;;8.28;7.40;;;;;;;9.15;49.98;99119.78;1751733;82;21114;-64
2022/01/10 04:24:45;;;;;;;8.75;7.22;;;;;;;9.15;49.96;99125.90;1760331;80;21652;-64
2022/01/10 04:27:11;;;;;;;8.60;7.47;;;;;;;9.15;49.96;99128.55;1778609;80;21038;-65
2022/01/10 04:29:38;;;;;;;7.47;6.75;;;;;;;9.15;49.98;99130.38;1778355;80;21022;-64
2022/01/10 04:32:07;;;;;;;8.58;6.90;;;;;;;9.15;49.98;99134.36;1778546;80;21069;-64
2022/01/10 04:34:33;;;;;;;8.70;7.62;;;;;;;9.15;49.96;99137.83;1781457;79;21258;-63
2022/01/10 04:37:00;;;;;;;7.35;6.60;;;;;;;9.14;49.96;99137.52;1809845;79;21025;-63
2022/01/10 04:39:27;;;;;;;8.20;6.80;;;;;;;9.15;49.98;99147.10;1809790;79;21039;-64
2022/01/10 04:41:53;;;;;;;8.33;7.00;;;;;;;9.13;49.97;99143.80;1810954;79;20986;-64
2022/01/10 04:44:20;;;;;;;7.37;6.28;;;;;;;9.14;49.98;99148.11;1783393;80;20999;-63
2022/01/10 04:46:47;;;;;;;9.95;7.33;;;;;;;9.15;49.96;99151.08;1784789;80;21126;-64
2022/01/10 04:49:21;;;;;;;8.73;7.83;;;;;;;9.15;49.98;99145.77;1767214;79;21058;-64
2022/01/10 04:51:43;;;;;;;8.70;7.40;;;;;;;9.15;49.96;99148.93;1762687;81;21061;-63
2022/01/10 04:54:09;;;;;;;8.43;6.92;;;;;;;9.14;49.95;99154.74;1816209;79;21034;-63
2022/01/10 04:56:35;;;;;;;9.43;7.55;;;;;;;9.14;49.94;99160.55;1816562;79;20990;-63
2022/01/10 04:59:02;;;;;;;8.65;7.03;;;;;;;9.14;49.95;99166.67;1815353;78;21146;-66
2022/01/10 05:01:29;;;;;;;8.38;7.25;;;;;;;9.14;49.96;99170.64;1808657;79;21584;-63
2022/01/10 05:03:57;;;;;;;8.50;6.97;;;;;;;9.13;49.96;99171.63;1808454;79;21481;-63
2022/01/10 05:06:24;;;;;;;8.15;7.00;;;;;;;9.13;49.99;99180.90;1783627;80;21033;-63
2022/01/10 05:08:51;;;;;;;7.90;7.10;;;;;;;9.13;50.00;99182.73;1785008;79;21552;-63
2022/01/10 05:11:20;;;;;;;7.92;7.15;;;;;;;9.13;49.99;99182.73;1784296;80;22548;-63
2022/01/10 05:13:47;;;;;;;8.38;7.17;;;;;;;9.13;49.97;99180.90;1784090;80;21057;-64
2022/01/10 05:16:15;;;;;;;8.40;7.00;;;;;;;9.12;49.99;99185.89;1785419;79;21053;-65
2022/01/10 05:18:41;;;;;;;8.58;7.62;;;;;;;9.12;49.99;99192.52;1786330;79;21549;-64
2022/01/10 05:21:09;;;;;;;7.87;6.67;;;;;;;9.12;50.00;99199.14;1792700;78;21097;-64
2022/01/10 05:23:36;;;;;;;8.05;7.03;;;;;;;9.12;49.98;99187.72;1816313;79;21862;-62
2022/01/10 05:26:02;;;;;;;8.60;7.65;;;;;;;9.12;50.00;99197.81;1804901;78;21014;-63
2022/01/10 05:28:29;;;;;;;7.87;6.90;;;;;;;9.13;50.00;99202.61;1735082;79;21053;-64
2022/01/10 05:31:00;;;;;;;8.40;7.50;;;;;;;9.12;50.00;99197.00;1778650;77;20993;-63
2022/01/10 05:33:27;;;;;;;7.50;6.65;;;;;;;9.12;50.00;99208.41;1804359;79;21030;-62
2022/01/10 05:35:54;;;;;;;8.78;7.85;;;;;;;9.11;50.00;99208.07;1810073;79;21132;-62
2022/01/10 05:38:20;;;;;;;8.23;7.30;;;;;;;9.12;49.99;99216.36;1797685;79;20990;-63
2022/01/10 05:40:46;;;;;;;8.23;7.42;;;;;;;9.12;49.99;99220.34;1794210;80;21088;-64
2022/01/10 05:43:13;;;;;;;7.83;7.12;;;;;;;9.11;50.01;99222.64;1790500;79;21025;-62
2022/01/10 05:45:43;;;;;;;7.70;6.87;;;;;;;9.11;50.01;99223.97;1797733;79;21038;-62
2022/01/10 05:48:13;;;;;;;9.05;7.65;;;;;;;9.11;50.02;99223.97;1813108;79;21127;-62
2022/01/10 05:50:41;;;;;;;8.08;7.25;;;;;;;9.12;50.01;99233.59;1842332;77;21580;-62
2022/01/10 05:53:17;;;;;;;8.68;7.50;;;;;;;9.11;50.00;99236.41;1846788;77;21002;-63
2022/01/10 05:55:43;;;;;;;8.98;7.50;;;;;;;9.11;50.02;99238.55;1844572;77;21009;-63
2022/01/10 05:58:12;;;;;;;8.40;7.50;;;;;;;9.11;50.00;99237.22;1835776;77;21045;-63
2022/01/10 06:00:39;;;;;;;9.40;7.17;;;;;;;9.11;50.00;99243.02;1844326;77;21107;-62
2022/01/10 06:03:06;;;;;;;8.60;7.70;;;;;;;9.10;50.02;99246.19;1847154;77;20998;-62
2022/01/10 06:05:34;;;;;;;8.45;7.53;;;;;;;9.11;50.00;99250.98;1854099;77;21505;-62
2022/01/10 06:08:05;;;;;;;8.45;7.30;;;;;;;9.11;50.02;99256.28;1838793;77;21545;-63
2022/01/10 06:10:32;;;;;;;7.80;6.97;;;;;;;9.11;50.00;99263.72;1842634;77;21044;-64
2022/01/10 06:13:01;;;;;;;8.35;7.55;;;;;;;9.10;50.03;99263.41;1839622;77;21120;-63
2022/01/10 06:15:28;;;;;;;8.13;7.33;;;;;;;9.10;50.01;99264.73;1837203;77;21061;-63
2022/01/10 06:17:55;;;;;;;9.60;8.40;;;;;;;9.10;50.00;99267.86;1835894;77;21014;-64
2022/01/10 06:20:21;;;;;;;8.55;7.70;;;;;;;9.10;50.00;99270.51;1844776;77;21049;-62
2022/01/10 06:22:48;;;;;;;8.83;7.40;;;;;;;9.09;50.00;99274.98;1842773;77;21001;-64
2022/01/10 06:25:18;;;;;;;9.10;8.13;;;;;;;9.10;50.02;99277.13;1843735;77;21823;-62
2022/01/10 06:27:44;;;;;;;8.95;7.33;;;;;;;9.10;50.02;99282.44;1829679;77;21821;-66
2022/01/10 06:30:11;;;;;;;9.28;7.83;;;;;;;9.10;50.00;99281.11;1845307;76;21024;-66
2022/01/10 06:32:39;;;;;;;9.45;7.83;;;;;;;9.09;50.02;99285.59;1843674;77;21040;-66
2022/01/10 06:35:08;;;;;;;9.45;8.45;;;;;;;9.10;50.03;99282.44;1855277;77;21060;-67
2022/01/10 06:37:35;;;;;;;9.00;7.65;;;;;;;9.10;50.02;99287.73;1856494;77;21090;-66
2022/01/10 06:40:03;;;;;;;8.95;7.83;;;;;;;9.10;50.03;99291.23;1849531;77;21427;-66
2022/01/10 06:42:31;;;;;;;8.90;7.72;;;;;;;9.10;50.02;99299.66;1849663;77;21038;-65
2022/01/10 06:44:58;;;;;;;9.15;7.75;;;;;;;9.10;50.02;99300.51;1852525;77;20990;-67
2022/01/10 06:47:24;;;;;;;9.05;7.40;;;;;;;9.10;50.02;99307.13;1846418;77;21324;-64
2022/01/10 06:49:51;;;;;;;10.80;8.60;;;;;;;9.11;50.02;99312.74;1842337;77;21169;-65
2022/01/10 06:52:17;;;;;;;9.65;7.87;;;;;;;9.11;50.01;99318.05;1841159;77;21508;-64
2022/01/10 06:54:44;;;;;;;9.13;8.00;;;;;;;9.12;50.01;99313.59;1827318;77;21533;-64
2022/01/10 06:57:11;;;;;;;9.68;8.18;;;;;;;9.12;49.98;99318.89;1843196;77;21029;-62
2022/01/10 06:59:38;;;;;;;10.20;8.90;;;;;;;9.12;50.00;99318.89;1825242;77;21025;-62
2022/01/10 07:02:04;;;;;;;9.45;8.30;;;;;;;9.08;49.98;99321.05;1834256;77;21130;-63
2022/01/10 07:04:32;;;;;;;9.95;8.30;;;;;;;9.13;49.97;99329.80;1844481;77;21018;-63
2022/01/10 07:07:00;;;;;;;9.68;7.80;;;;;;;9.13;49.96;99330.63;1847503;77;21006;-64
2022/01/10 07:09:31;;;;;;;9.03;8.05;;;;;;;9.14;49.96;99331.47;1839827;77;20996;-63
2022/01/10 07:12:06;;;;;;;9.15;8.25;;;;;;;9.14;49.99;99333.62;1798299;79;21034;-64
2022/01/10 07:14:36;;;;;;;12.53;8.45;;;;;;;9.13;49.97;99333.27;1782299;79;21506;-65
2022/01/10 07:17:04;;;;;;;10.05;8.93;;;;;;;9.14;49.98;99338.92;1798202;79;20971;-64
2022/01/10 07:19:30;;;;;;;10.78;9.33;;;;;;;9.15;49.98;99339.73;1774339;80;21213;-64
2022/01/10 07:21:57;;;;;;;10.25;8.53;;;;;;;9.16;49.98;99344.05;1743467;82;21026;-63
2022/01/10 07:24:23;;;;;;;9.93;8.88;;;;;;;9.16;49.98;99344.05;1784569;77;21045;-65
2022/01/10 07:26:50;;;;;;;9.10;8.20;;;;;;;9.16;49.98;99339.58;1804447;78;21206;-65
2022/01/10 07:29:16;;;;;;;8.83;7.90;;;;;;;9.17;49.98;99342.53;1791807;79;21049;-65
2022/01/10 07:31:43;;;;;;;9.70;8.03;;;;;;;9.18;49.96;99348.69;1773867;80;21074;-64
2022/01/10 07:34:12;;;;;;;9.98;8.35;;;;;;;9.19;49.97;99350.33;1761085;80;21010;-64
2022/01/10 07:36:38;;;;;;;9.33;8.33;;;;;;;9.19;49.92;99349.85;1782000;79;21034;-64
2022/01/10 07:39:05;;;;;;;10.32;8.70;;;;;;;9.20;49.91;99352.81;1767254;80;22377;-64
2022/01/10 07:41:31;;;;;;;9.58;7.80;;;;;;;9.22;49.92;99354.80;1802629;79;21026;-67
2022/01/10 07:43:59;;;;;;;9.35;8.05;;;;;;;9.23;49.91;99354.29;1776367;80;21482;-65
2022/01/10 07:46:27;;;;;;;10.40;8.83;;;;;;;9.24;49.90;99354.13;1770207;80;21017;-65
2022/01/10 07:48:54;;;;;;;10.10;8.75;;;;;;;9.27;49.88;99359.58;1783975;79;20974;-64
2022/01/10 07:51:24;;;;;;;10.13;8.45;;;;;;;9.28;49.88;99363.08;1784378;79;21101;-65
2022/01/10 07:53:50;;;;;;;9.50;8.48;;;;;;;9.28;49.85;99361.75;1733850;81;21023;-64
2022/01/10 07:56:16;;;;;;;10.13;8.75;;;;;;;9.29;49.84;99368.22;1822772;78;21060;-66
2022/01/10 07:58:43;;;;;;;11.60;8.90;;;;;;;9.30;49.84;99369.86;1821676;77;21013;-64
2022/01/10 08:01:09;;;;;;;8.40;7.55;;;;;;;9.31;49.80;99365.38;1817041;77;21493;-65
2022/01/10 08:03:37;;;;;;;8.88;7.90;;;;;;;9.32;49.79;99373.67;1824725;77;21205;-63
2022/01/10 08:06:03;;;;;;;10.15;8.88;;;;;;;9.34;49.79;99378.30;1818660;77;20989;-65
2022/01/10 08:08:30;;;;;;;11.08;9.18;;;;;;;9.34;49.77;99386.26;1778612;79;21046;-64
2022/01/10 08:10:56;;;;;;;9.55;8.55;;;;;;;9.35;49.76;99382.59;1776898;79;21109;-65
2022/01/10 08:13:23;;;;;;;9.50;8.48;;;;;;;9.35;49.73;99387.42;1763107;80;21084;-63
2022/01/10 08:15:50;;;;;;;9.83;8.20;;;;;;;9.36;49.75;99389.56;1821813;77;21048;-65
2022/01/10 08:18:17;;;;;;;10.58;8.53;;;;;;;9.37;49.72;99397.86;1817328;78;21068;-64
2022/01/10 08:20:43;;;;;;;9.05;8.10;;;;;;;9.37;49.72;99399.19;1811512;78;21030;-65
2022/01/10 08:23:10;;;;;;;10.90;8.98;;;;;;;9.38;49.71;99396.84;1782024;80;21754;-63
2022/01/10 08:25:36;;;;;;;9.95;8.15;;;;;;;9.39;49.70;99401.17;1780893;79;21092;-63
2022/01/10 08:28:03;;;;;;;10.53;9.00;;;;;;;9.40;49.69;99409.44;1783216;80;21506;-64
2022/01/10 08:30:30;;;;;;;9.95;8.85;;;;;;;9.41;49.70;99408.45;1780659;80;21025;-64
2022/01/10 08:32:57;;;;;;;9.33;8.40;;;;;;;9.41;49.70;99407.13;1755614;80;21057;-64
2022/01/10 08:35:23;;;;;;;11.28;9.75;;;;;;;9.42;49.66;99413.56;1822954;78;21044;-63
2022/01/10 08:37:50;;;;;;;10.25;8.83;;;;;;;9.42;49.66;99417.54;1823456;77;21434;-65
2022/01/10 08:40:16;;;;;;;11.73;9.40;;;;;;;9.43;49.64;99415.23;1822411;77;21117;-65
2022/01/10 08:42:42;;;;;;;10.72;8.60;;;;;;;9.44;49.64;99418.70;1818344;77;21013;-63
2022/01/10 08:45:10;;;;;;;11.15;8.88;;;;;;;9.43;49.63;99423.19;1818695;77;21079;-64
2022/01/10 08:47:37;;;;;;;9.93;8.80;;;;;;;9.44;49.62;99424.86;1823092;78;21009;-65
2022/01/10 08:50:05;;;;;;;10.30;8.85;;;;;;;9.45;49.61;99423.03;1821078;77;21010;-64
2022/01/10 08:52:32;;;;;;;11.65;9.40;;;;;;;9.45;49.60;99427.83;1814887;77;21189;-64
2022/01/10 08:54:59;;;;;;;10.45;8.85;;;;;;;9.47;49.59;99428.17;1818241;77;21074;-65
2022/01/10 08:57:26;;;;;;;9.35;8.40;;;;;;;9.47;49.59;99432.14;1826179;77;21102;-64
2022/01/10 08:59:55;;;;;;;10.23;8.60;;;;;;;9.47;49.60;99434.29;1839613;77;21001;-63
2022/01/10 09:02:21;;;;;;;11.18;9.50;;;;;;;9.47;49.60;99431.64;1832804;76;21054;-64
2022/01/10 09:04:48;;;;;;;9.95;8.75;;;;;;;9.48;49.58;99437.25;1815502;76;21529;-63
2022/01/10 09:07:14;;;;;;;9.38;8.33;;;;;;;9.48;49.55;99438.58;1819068;76;21014;-65
2022/01/10 09:09:42;;;;;;;11.63;9.58;;;;;;;9.49;49.57;99438.92;1814397;77;21021;-64
2022/01/10 09:12:11;;;;;;;10.70;9.40;;;;;;;9.49;49.55;99442.91;1820469;77;20977;-63
2022/01/10 09:14:38;;;;;;;9.73;8.10;;;;;;;9.49;49.53;99445.55;1828772;77;20974;-64
2022/01/10 09:17:04;;;;;;;10.98;9.20;;;;;;;9.47;49.54;99446.22;1837077;77;21986;-64
2022/01/10 09:19:31;;;;;;;9.73;8.70;;;;;;;9.50;49.53;99445.05;1823117;76;21057;-63
2022/01/10 09:21:57;;;;;;;10.30;8.78;;;;;;;9.49;49.54;99441.58;1825717;77;20982;-64
2022/01/10 09:24:25;;;;;;;9.33;7.80;;;;;;;9.49;49.53;99444.23;1833549;77;21777;-64
2022/01/10 09:26:51;;;;;;;10.60;8.90;;;;;;;9.49;49.54;99452.19;1840418;77;21027;-65
2022/01/10 09:29:17;;;;;;;9.75;8.50;;;;;;;9.49;49.54;99448.71;1775454;80;23324;-64
2022/01/10 09:31:45;;;;;;;9.70;8.25;;;;;;;9.50;49.54;99450.35;1788539;79;21045;-64
2022/01/10 09:34:12;;;;;;;11.12;9.93;;;;;;;9.50;49.53;99456.98;1741120;80;21026;-66
2022/01/10 09:36:38;;;;;;;9.83;8.78;;;;;;;9.49;49.53;99461.47;1765615;80;21019;-64
2022/01/10 09:39:04;;;;;;;10.30;8.15;;;;;;;9.49;49.52;99460.14;1777647;79;22182;-65
2022/01/10 09:41:31;;;;;;;9.48;8.33;;;;;;;9.48;49.52;99457.14;1800126;79;21138;-64
2022/01/10 09:44:02;;;;;;;11.00;8.73;;;;;;;9.49;49.54;99459.31;1789432;79;21026;-64
2022/01/10 09:46:29;;;;;;;9.80;8.35;;;;;;;9.49;49.53;99461.47;1784116;78;21112;-66
2022/01/10 09:48:57;;;;;;;10.15;8.38;;;;;;;9.48;49.51;99459.80;1752173;80;21045;-63
2022/01/10 09:51:26;;;;;;;9.55;8.50;;;;;;;9.50;49.52;99466.27;1734994;80;21025;-64
2022/01/10 09:53:52;;;;;;;12.15;9.75;;;;;;;9.50;49.51;99470.23;1732129;80;21490;-64
2022/01/10 09:56:18;;;;;;;9.40;8.40;;;;;;;9.50;49.50;99476.36;1805183;77;22060;-65
2022/01/10 09:58:45;;;;;;;10.10;9.10;;;;;;;9.50;49.49;99475.03;1790024;79;21054;-65
2022/01/10 10:01:13;;;;;;;9.58;8.55;;;;;;;9.51;49.47;99482.52;1779284;78;21113;-64
2022/01/10 10:03:47;;;;;;;9.03;8.10;;;;;;;9.51;49.46;99484.66;1768157;79;21010;-67
2022/01/10 10:06:16;;;;;;;9.53;8.48;;;;;;;9.52;49.48;99485.01;1779447;79;21832;-65
2022/01/10 10:08:43;;;;;;;11.50;9.28;;;;;;;9.52;49.46;99486.33;1776530;79;21498;-64
2022/01/10 10:11:10;;;;;;;8.98;8.05;;;;;;;9.52;49.44;99491.64;1788018;79;20990;-65
2022/01/10 10:13:55;;;;;;;8.95;7.90;;;;;;;9.52;49.45;99490.78;1802804;79;21486;-65
2022/01/10 10:16:25;;;;;;;12.35;9.30;;;;;;;9.51;49.43;99495.78;1786724;77;21065;-65
2022/01/10 10:18:51;;;;;;;10.20;9.08;;;;;;;9.49;49.44;99490.63;1783762;79;21134;-64
2022/01/10 10:21:20;;;;;;;9.53;8.33;;;;;;;9.49;49.46;99491.14;1789968;79;21097;-67
2022/01/10 10:23:48;;;;;;;10.10;9.03;;;;;;;9.49;49.44;99501.74;1800414;77;21018;-64
2022/01/10 10:26:21;;;;;;;9.65;8.25;;;;;;;9.49;49.46;99504.39;1795139;79;21040;-66
2022/01/10 10:28:48;;;;;;;10.13;8.95;;;;;;;9.49;49.46;99512.35;1789848;79;21104;-65
2022/01/10 10:31:32;;;;;;;9.93;8.88;;;;;;;9.48;49.45;99509.36;1782317;79;21121;-64
2022/01/10 10:34:04;;;;;;;9.95;8.90;;;;;;;9.47;49.46;99515.16;1776937;79;21092;-64
2022/01/10 10:36:33;;;;;;;12.65;9.90;;;;;;;9.48;49.45;99517.31;1784267;78;21042;-64
2022/01/10 10:39:02;;;;;;;10.65;8.85;;;;;;;9.47;49.46;99515.16;1799542;79;21338;-64
2022/01/10 10:41:28;;;;;;;11.55;8.78;;;;;;;9.46;49.45;99512.16;1783499;79;21037;-65
2022/01/10 10:43:54;;;;;;;10.65;9.23;;;;;;;9.45;49.46;99517.97;1803078;77;21154;-65
2022/01/10 10:46:25;;;;;;;10.30;8.75;;;;;;;9.44;49.48;99514.16;1793060;79;21534;-65
2022/01/10 10:48:50;;;;;;;8.90;8.00;;;;;;;9.43;49.48;99521.30;1783932;79;21057;-66
2022/01/10 10:51:16;;;;;;;9.78;8.78;;;;;;;9.44;49.48;99522.96;1786785;78;21082;-64
2022/01/10 10:53:44;;;;;;;10.13;8.90;;;;;;;9.44;49.47;99527.41;1807295;77;21534;-64
2022/01/10 10:56:10;;;;;;;9.25;8.18;;;;;;;9.43;49.50;99525.77;1816801;78;23282;-64
2022/01/10 10:58:42;;;;;;;9.95;8.78;;;;;;;9.43;49.48;99534.55;1816281;78;21008;-64
2022/01/10 11:01:06;;;;;;;8.75;7.85;;;;;;;9.43;49.47;99537.20;1818112;78;21057;-64
2022/01/10 11:03:34;;;;;;;9.85;8.43;;;;;;;9.43;49.45;99535.05;1816076;78;21100;-65
2022/01/10 11:06:03;;;;;;;10.88;8.85;;;;;;;9.44;49.46;99542.00;1831225;77;21462;-65
2022/01/10 11:08:31;;;;;;;9.28;8.28;;;;;;;9.43;49.44;99543.83;1817546;78;21152;-64
2022/01/10 11:10:59;;;;;;;8.88;7.95;;;;;;;9.44;49.43;99547.30;1815396;77;21485;-64
2022/01/10 11:13:27;;;;;;;10.35;8.75;;;;;;;9.43;49.43;99553.11;1816333;78;20994;-64
2022/01/10 11:15:56;;;;;;;10.30;8.83;;;;;;;9.42;49.45;99543.98;1812664;78;21013;-65
2022/01/10 11:18:22;;;;;;;10.95;9.85;;;;;;;9.42;49.44;99547.97;1814446;78;20989;-65
2022/01/10 11:20:55;;;;;;;11.05;9.53;;;;;;;9.41;49.44;99543.17;1816821;78;22513;-66
2022/01/10 11:23:22;;;;;;;9.50;8.18;;;;;;;9.41;49.43;99551.13;1829348;77;21074;-66
2022/01/10 11:25:49;;;;;;;10.38;8.70;;;;;;;9.41;49.43;99552.45;1811090;77;21044;-65
2022/01/10 11:28:25;;;;;;;10.10;8.03;;;;;;;9.40;49.44;99549.45;1821323;77;21541;-65
2022/01/10 11:31:02;;;;;;;10.68;8.10;;;;;;;9.41;49.48;99550.30;1819359;78;21026;-67
2022/01/10 11:33:35;;;;;;;9.75;8.43;;;;;;;9.41;49.63;99554.28;1812981;77;21121;-66
2022/01/10 11:36:08;;;;;;;8.60;7.72;;;;;;;9.42;49.64;99552.77;1809887;78;21067;-67
2022/01/10 11:38:45;;;;;;;10.05;9.03;;;;;;;9.41;49.66;99559.58;1818498;77;21017;-66
2022/01/10 11:41:17;;;;;;;10.15;8.30;;;;;;;9.41;49.65;99560.41;1817288;77;21516;-67
2022/01/10 11:44:07;;;;;;;10.07;8.37;;;;;;;9.41;49.63;99560.41;1769983;79;21656;-66
2022/01/10 11:46:39;;;;;;;10.30;8.58;;;;;;;9.40;49.60;99565.36;1809120;78;21501;-65
2022/01/10 11:49:21;;;;;;;10.20;8.43;;;;;;;9.41;49.61;99571.52;1818794;78;21014;-67
2022/01/10 11:51:56;;;;;;;9.75;8.70;;;;;;;9.40;49.59;99572.48;1822201;76;21502;-65